sensor_id;sensor_type;location;lat;lon;timestamp;pressure;altitude;pressure_sealevel;temperature;humidity
56402;BME280;42299;35.160;26.100;2023-03-14T00:00:07;100980.03;;;12.24;100.00
56402;BME280;42299;35.160;26.100;2023-03-14T00:01:29;100984.41;;;12.22;100.00
56402;BME280;42299;35.160;26.100;2023-03-14T00:02:54;100980.88;;;12.22;100.00
56402;BME280;42299;35.160;26.100;2023-03-14T00:04:15;100985.28;;;12.20;100.00
56402;BME280;42299;35.160;26.100;2023-03-14T00:05:37;100974.66;;;12.18;100.00
56402;BME280;42299;35.160;26.100;2023-03-14T00:06:59;100985.19;;;12.15;100.00
56402;BME280;42299;35.160;26.100;2023-03-14T00:08:20;100982.53;;;12.12;100.00
56402;BME280;42299;35.160;26.100;2023-03-14T00:09:44;100976.31;;;12.10;100.00
56402;BME280;42299;35.160;26.100;2023-03-14T00:11:07;100976.28;;;12.09;100.00
56402;BME280;42299;35.160;26.100;2023-03-14T00:12:29;100979.81;;;12.06;100.00
56402;BME280;42299;35.160;26.100;2023-03-14T00:13:52;100987.72;;;12.05;100.00
56402;BME280;42299;35.160;26.100;2023-03-14T00:15:14;100980.63;;;12.01;100.00
56402;BME280;42299;35.160;26.100;2023-03-14T00:16:36;100972.59;;;11.96;100.00
56402;BME280;42299;35.160;26.100;2023-03-14T00:17:59;100980.56;;;11.97;100.00
56402;BME280;42299;35.160;26.100;2023-03-14T00:19:22;100962.91;;;11.96;100.00
56402;BME280;42299;35.160;26.100;2023-03-14T00:20:43;100973.47;;;11.93;100.00
56402;BME280;42299;35.160;26.100;2023-03-14T00:22:05;100976.97;;;11.92;100.00
56402;BME280;42299;35.160;26.100;2023-03-14T00:23:27;100975.16;;;11.90;100.00
56402;BME280;42299;35.160;26.100;2023-03-14T00:24:50;100974.28;;;11.89;100.00
56402;BME280;42299;35.160;26.100;2023-03-14T00:26:14;100971.63;;;11.89;100.00
56402;BME280;42299;35.160;26.100;2023-03-14T00:27:36;100964.59;;;11.90;100.00
56402;BME280;42299;35.160;26.100;2023-03-14T00:28:59;100972.50;;;11.88;100.00
56402;BME280;42299;35.160;26.100;2023-03-14T00:30:22;100964.56;;;11.88;100.00
56402;BME280;42299;35.160;26.100;2023-03-14T00:31:43;100974.25;;;11.86;100.00
56402;BME280;42299;35.160;26.100;2023-03-14T00:33:07;100963.69;;;11.88;100.00
56402;BME280;42299;35.160;26.100;2023-03-14T00:34:28;100967.19;;;11.85;100.00
56402;BME280;42299;35.160;26.100;2023-03-14T00:35:55;100977.75;;;11.85;100.00
56402;BME280;42299;35.160;26.100;2023-03-14T00:37:16;100957.47;;;11.84;100.00
56402;BME280;42299;35.160;26.100;2023-03-14T00:38:40;100959.22;;;11.84;100.00
56402;BME280;42299;35.160;26.100;2023-03-14T00:40:03;100969.81;;;11.84;100.00
56402;BME280;42299;35.160;26.100;2023-03-14T00:41:27;100953.94;;;11.84;100.00
56402;BME280;42299;35.160;26.100;2023-03-14T00:42:48;100950.38;;;11.83;100.00
56402;BME280;42299;35.160;26.100;2023-03-14T00:44:11;100934.53;;;11.83;100.00
56402;BME280;42299;35.160;26.100;2023-03-14T00:45:33;100940.69;;;11.84;100.00
56402;BME280;42299;35.160;26.100;2023-03-14T00:46:56;100932.78;;;11.85;100.00
56402;BME280;42299;35.160;26.100;2023-03-14T00:48:19;100936.31;;;11.84;100.00
56402;BME280;42299;35.160;26.100;2023-03-14T00:49:42;100928.34;;;11.83;100.00
56402;BME280;42299;35.160;26.100;2023-03-14T00:51:08;100923.06;;;11.83;100.00
56402;BME280;42299;35.160;26.100;2023-03-14T00:52:29;100930.09;;;11.82;100.00
56402;BME280;42299;35.160;26.100;2023-03-14T00:53:51;100924.81;;;11.82;100.00
56402;BME280;42299;35.160;26.100;2023-03-14T00:55:14;100932.75;;;11.82;100.00
56402;BME280;42299;35.160;26.100;2023-03-14T00:56:37;100926.59;;;11.83;100.00
56402;BME280;42299;35.160;26.100;2023-03-14T00:57:59;100931.91;;;11.85;100.00
56402;BME280;42299;35.160;26.100;2023-03-14T00:59:20;100929.28;;;11.86;100.00
56402;BME280;42299;35.160;26.100;2023-03-14T01:00:43;100931.97;;;11.88;100.00
56402;BME280;42299;35.160;26.100;2023-03-14T01:02:05;100927.53;;;11.88;100.00
56402;BME280;42299;35.160;26.100;2023-03-14T01:03:29;100927.53;;;11.88;100.00
56402;BME280;42299;35.160;26.100;2023-03-14T01:04:50;100921.38;;;11.88;100.00
56402;BME280;42299;35.160;26.100;2023-03-14T01:06:14;100926.69;;;11.91;100.00
56402;BME280;42299;35.160;26.100;2023-03-14T01:07:37;100917.91;;;11.95;100.00
56402;BME280;42299;35.160;26.100;2023-03-14T01:09:00;100920.66;;;12.03;100.00
56402;BME280;42299;35.160;26.100;2023-03-14T01:10:22;100908.41;;;12.11;100.00
56402;BME280;42299;35.160;26.100;2023-03-14T01:11:43;100913.78;;;12.17;100.00
56402;BME280;42299;35.160;26.100;2023-03-14T01:13:07;100907.69;;;12.24;100.00
56402;BME280;42299;35.160;26.100;2023-03-14T01:14:30;100906.84;;;12.29;100.00
56402;BME280;42299;35.160;26.100;2023-03-14T01:15:52;100899.84;;;12.33;100.00
56402;BME280;42299;35.160;26.100;2023-03-14T01:17:14;100901.59;;;12.34;100.00
56402;BME280;42299;35.160;26.100;2023-03-14T01:18:39;100905.13;;;12.34;100.00
56402;BME280;42299;35.160;26.100;2023-03-14T01:20:01;100902.47;;;12.31;100.00
56402;BME280;42299;35.160;26.100;2023-03-14T01:21:27;100911.25;;;12.29;100.00
56402;BME280;42299;35.160;26.100;2023-03-14T01:22:50;100897.13;;;12.25;100.00
56402;BME280;42299;35.160;26.100;2023-03-14T01:24:12;100894.41;;;12.21;100.00
56402;BME280;42299;35.160;26.100;2023-03-14T01:25:40;100896.16;;;12.19;100.00
56402;BME280;42299;35.160;26.100;2023-03-14T01:27:02;100892.59;;;12.14;100.00
56402;BME280;42299;35.160;26.100;2023-03-14T01:28:24;100890.81;;;12.13;100.00
56402;BME280;42299;35.160;26.100;2023-03-14T01:29:45;100908.41;;;12.11;100.00
56402;BME280;42299;35.160;26.100;2023-03-14T01:31:09;100911.94;;;12.10;100.00
56402;BME280;42299;35.160;26.100;2023-03-14T01:32:31;100922.50;;;12.07;100.00
56402;BME280;42299;35.160;26.100;2023-03-14T01:33:55;100916.28;;;12.05;100.00
56402;BME280;42299;35.160;26.100;2023-03-14T01:35:17;100915.34;;;12.00;100.00
56402;BME280;42299;35.160;26.100;2023-03-14T01:36:40;100925.91;;;11.98;100.00
56402;BME280;42299;35.160;26.100;2023-03-14T01:38:01;100925.88;;;11.96;100.00
56402;BME280;42299;35.160;26.100;2023-03-14T01:39:24;100920.59;;;11.96;100.00
56402;BME280;42299;35.160;26.100;2023-03-14T01:40:46;100929.38;;;11.95;100.00
56402;BME280;42299;35.160;26.100;2023-03-14T01:42:09;100932.94;;;11.94;100.00
56402;BME280;42299;35.160;26.100;2023-03-14T01:43:32;100929.34;;;11.91;100.00
56402;BME280;42299;35.160;26.100;2023-03-14T01:44:57;100915.19;;;11.87;100.00
56402;BME280;42299;35.160;26.100;2023-03-14T01:46:38;100904.59;;;11.86;100.00
56402;BME280;42299;35.160;26.100;2023-03-14T01:48:01;100923.06;;;11.84;100.00
56402;BME280;42299;35.160;26.100;2023-03-14T01:49:29;100924.88;;;11.87;100.00
56402;BME280;42299;35.160;26.100;2023-03-14T01:50:59;100925.78;;;11.87;100.00
56402;BME280;42299;35.160;26.100;2023-03-14T01:52:23;100920.50;;;11.87;100.00
56402;BME280;42299;35.160;26.100;2023-03-14T01:53:47;100916.06;;;11.86;100.00
56402;BME280;42299;35.160;26.100;2023-03-14T01:55:13;100920.50;;;11.87;100.00
56402;BME280;42299;35.160;26.100;2023-03-14T01:56:38;100918.72;;;11.86;100.00
56402;BME280;42299;35.160;26.100;2023-03-14T01:58:02;100922.22;;;11.85;100.00
56402;BME280;42299;35.160;26.100;2023-03-14T01:59:26;100918.72;;;11.86;100.00
56402;BME280;42299;35.160;26.100;2023-03-14T02:00:49;100907.25;;;11.87;100.00
56402;BME280;42299;35.160;26.100;2023-03-14T02:02:12;100918.72;;;11.88;100.00
56402;BME280;42299;35.160;26.100;2023-03-14T02:03:41;100911.66;;;11.88;100.00
56402;BME280;42299;35.160;26.100;2023-03-14T02:05:08;100930.19;;;11.87;100.00
56402;BME280;42299;35.160;26.100;2023-03-14T02:06:40;100935.50;;;11.90;100.00
56402;BME280;42299;35.160;26.100;2023-03-14T02:08:05;100936.47;;;11.96;100.00
56402;BME280;42299;35.160;26.100;2023-03-14T02:09:39;100946.25;;;12.04;100.00
56402;BME280;42299;35.160;26.100;2023-03-14T02:11:04;100927.81;;;12.10;100.00
56402;BME280;42299;35.160;26.100;2023-03-14T02:12:46;100941.97;;;12.13;100.00
56402;BME280;42299;35.160;26.100;2023-03-14T02:14:27;100940.25;;;12.18;100.00
56402;BME280;42299;35.160;26.100;2023-03-14T02:16:10;100931.44;;;12.21;100.00
56402;BME280;42299;35.160;26.100;2023-03-14T02:17:40;100942.97;;;12.24;100.00
56402;BME280;42299;35.160;26.100;2023-03-14T02:19:35;100933.31;;;12.26;100.00
56402;BME280;42299;35.160;26.100;2023-03-14T02:21:18;100936.84;;;12.27;100.00
56402;BME280;42299;35.160;26.100;2023-03-14T02:22:43;100943.88;;;12.25;100.00
56402;BME280;42299;35.160;26.100;2023-03-14T02:24:11;100936.78;;;12.22;100.00
56402;BME280;42299;35.160;26.100;2023-03-14T02:25:43;100943.81;;;12.22;100.00
56402;BME280;42299;35.160;26.100;2023-03-14T02:27:11;100952.69;;;12.24;100.00
56402;BME280;42299;35.160;26.100;2023-03-14T02:28:38;100957.09;;;12.25;100.00
56402;BME280;42299;35.160;26.100;2023-03-14T02:30:04;100950.09;;;12.27;100.00
56402;BME280;42299;35.160;26.100;2023-03-14T02:31:28;100952.72;;;12.27;100.00
56402;BME280;42299;35.160;26.100;2023-03-14T02:32:53;100956.31;;;12.32;100.00
56402;BME280;42299;35.160;26.100;2023-03-14T02:34:16;100960.72;;;12.34;100.00
56402;BME280;42299;35.160;26.100;2023-03-14T02:35:41;100959.88;;;12.35;100.00
56402;BME280;42299;35.160;26.100;2023-03-14T02:37:04;100961.69;;;12.40;100.00
56402;BME280;42299;35.160;26.100;2023-03-14T02:38:31;100951.09;;;12.41;100.00
56402;BME280;42299;35.160;26.100;2023-03-14T02:39:59;100955.50;;;12.41;100.00
56402;BME280;42299;35.160;26.100;2023-03-14T02:41:20;100961.72;;;12.43;100.00
56402;BME280;42299;35.160;26.100;2023-03-14T02:42:54;100960.00;;;12.46;100.00
56402;BME280;42299;35.160;26.100;2023-03-14T02:44:15;100964.44;;;12.49;100.00
56402;BME280;42299;35.160;26.100;2023-03-14T02:45:41;100956.50;;;12.50;100.00
56402;BME280;42299;35.160;26.100;2023-03-14T02:47:04;100956.50;;;12.50;100.00
56402;BME280;42299;35.160;26.100;2023-03-14T02:48:30;100953.88;;;12.52;100.00
56402;BME280;42299;35.160;26.100;2023-03-14T02:49:54;100950.34;;;12.51;100.00
56402;BME280;42299;35.160;26.100;2023-03-14T02:51:21;100952.97;;;12.50;100.00
56402;BME280;42299;35.160;26.100;2023-03-14T02:52:44;100950.31;;;12.50;100.00
56402;BME280;42299;35.160;26.100;2023-03-14T02:54:06;100946.81;;;12.51;100.00
56402;BME280;42299;35.160;26.100;2023-03-14T02:55:28;100956.53;;;12.52;100.00
56402;BME280;42299;35.160;26.100;2023-03-14T02:56:53;100947.69;;;12.51;100.00
56402;BME280;42299;35.160;26.100;2023-03-14T02:58:18;100955.63;;;12.51;100.00
56402;BME280;42299;35.160;26.100;2023-03-14T02:59:42;100945.91;;;12.50;100.00
56402;BME280;42299;35.160;26.100;2023-03-14T03:01:09;100949.44;;;12.49;100.00
56402;BME280;42299;35.160;26.100;2023-03-14T03:02:32;100945.03;;;12.50;100.00
56402;BME280;42299;35.160;26.100;2023-03-14T03:03:55;100941.47;;;12.49;100.00
56402;BME280;42299;35.160;26.100;2023-03-14T03:05:18;100934.41;;;12.48;100.00
56402;BME280;42299;35.160;26.100;2023-03-14T03:06:40;100946.75;;;12.46;100.00
56402;BME280;42299;35.160;26.100;2023-03-14T03:08:01;100945.81;;;12.43;100.00
56402;BME280;42299;35.160;26.100;2023-03-14T03:09:24;100943.13;;;12.38;100.00
56402;BME280;42299;35.160;26.100;2023-03-14T03:10:47;100949.25;;;12.34;100.00
56402;BME280;42299;35.160;26.100;2023-03-14T03:12:09;100950.09;;;12.30;100.00
56402;BME280;42299;35.160;26.100;2023-03-14T03:13:33;100945.66;;;12.26;100.00
56402;BME280;42299;35.160;26.100;2023-03-14T03:14:57;100953.56;;;12.24;100.00
56402;BME280;42299;35.160;26.100;2023-03-14T03:16:18;100954.47;;;12.26;100.00
56402;BME280;42299;35.160;26.100;2023-03-14T03:17:40;100949.22;;;12.31;100.00
56402;BME280;42299;35.160;26.100;2023-03-14T03:19:03;100958.97;;;12.35;100.00
56402;BME280;42299;35.160;26.100;2023-03-14T03:20:25;100961.66;;;12.38;100.00
56402;BME280;42299;35.160;26.100;2023-03-14T03:21:46;100947.56;;;12.41;100.00
56402;BME280;42299;35.160;26.100;2023-03-14T03:23:09;100940.50;;;12.41;100.00
56402;BME280;42299;35.160;26.100;2023-03-14T03:24:33;100944.06;;;12.43;100.00
56402;BME280;42299;35.160;26.100;2023-03-14T03:25:56;100949.38;;;12.45;100.00
56402;BME280;42299;35.160;26.100;2023-03-14T03:27:18;100936.16;;;12.45;100.00
56402;BME280;42299;35.160;26.100;2023-03-14T03:28:41;100943.22;;;12.46;100.00
56402;BME280;42299;35.160;26.100;2023-03-14T03:30:06;100935.22;;;12.43;100.00
56402;BME280;42299;35.160;26.100;2023-03-14T03:31:29;100958.19;;;12.44;100.00
56402;BME280;42299;35.160;26.100;2023-03-14T03:32:52;100941.41;;;12.43;100.00
56402;BME280;42299;35.160;26.100;2023-03-14T03:34:14;100956.47;;;12.46;100.00
56402;BME280;42299;35.160;26.100;2023-03-14T03:35:42;100948.53;;;12.49;100.00
56402;BME280;42299;35.160;26.100;2023-03-14T03:37:05;100953.00;;;12.51;100.00
56402;BME280;42299;35.160;26.100;2023-03-14T03:38:30;100956.53;;;12.55;100.00
56402;BME280;42299;35.160;26.100;2023-03-14T03:39:55;100952.16;;;12.57;100.00
56402;BME280;42299;35.160;26.100;2023-03-14T03:41:18;100953.94;;;12.58;100.00
56402;BME280;42299;35.160;26.100;2023-03-14T03:42:40;100941.53;;;12.55;100.00
56402;BME280;42299;35.160;26.100;2023-03-14T03:44:06;100956.59;;;12.58;100.00
56402;BME280;42299;35.160;26.100;2023-03-14T03:45:28;100933.66;;;12.58;100.00
56402;BME280;42299;35.160;26.100;2023-03-14T03:46:51;100939.84;;;12.59;100.00
56402;BME280;42299;35.160;26.100;2023-03-14T03:48:12;100944.19;;;12.52;100.00
56402;BME280;42299;35.160;26.100;2023-03-14T03:49:35;100940.63;;;12.50;100.00
56402;BME280;42299;35.160;26.100;2023-03-14T03:50:56;100937.09;;;12.50;100.00
56402;BME280;42299;35.160;26.100;2023-03-14T03:52:19;100944.13;;;12.49;100.00
56402;BME280;42299;35.160;26.100;2023-03-14T03:53:41;100938.84;;;12.49;100.00
56402;BME280;42299;35.160;26.100;2023-03-14T03:55:07;100943.25;;;12.49;100.00
56402;BME280;42299;35.160;26.100;2023-03-14T03:56:29;100944.13;;;12.49;100.00
56402;BME280;42299;35.160;26.100;2023-03-14T03:57:52;100954.72;;;12.49;100.00
56402;BME280;42299;35.160;26.100;2023-03-14T03:59:16;100957.38;;;12.49;100.00
56402;BME280;42299;35.160;26.100;2023-03-14T04:00:40;100952.06;;;12.46;100.00
56402;BME280;42299;35.160;26.100;2023-03-14T04:02:01;100954.59;;;12.37;100.00
56402;BME280;42299;35.160;26.100;2023-03-14T04:03:24;100965.09;;;12.29;100.00
56402;BME280;42299;35.160;26.100;2023-03-14T04:04:45;100956.19;;;12.23;100.00
56402;BME280;42299;35.160;26.100;2023-03-14T04:06:09;100949.97;;;12.18;100.00
56402;BME280;42299;35.160;26.100;2023-03-14T04:07:32;100954.25;;;12.10;100.00
56402;BME280;42299;35.160;26.100;2023-03-14T04:08:55;100947.13;;;12.04;100.00
56402;BME280;42299;35.160;26.100;2023-03-14T04:10:41;100951.44;;;11.96;100.00
56402;BME280;42299;35.160;26.100;2023-03-14T04:12:06;100954.00;;;11.90;100.00
56402;BME280;42299;35.160;26.100;2023-03-14T04:13:48;100958.34;;;11.85;100.00
56402;BME280;42299;35.160;26.100;2023-03-14T04:15:12;100954.84;;;11.86;100.00
56402;BME280;42299;35.160;26.100;2023-03-14T04:16:39;100954.84;;;11.86;100.00
56402;BME280;42299;35.160;26.100;2023-03-14T04:18:10;100958.44;;;11.91;100.00
56402;BME280;42299;35.160;26.100;2023-03-14T04:19:34;100957.59;;;11.95;100.00
56402;BME280;42299;35.160;26.100;2023-03-14T04:20:57;100963.84;;;12.00;100.00
56402;BME280;42299;35.160;26.100;2023-03-14T04:22:29;100957.72;;;12.01;100.00
56402;BME280;42299;35.160;26.100;2023-03-14T04:23:51;100947.09;;;12.00;100.00
56402;BME280;42299;35.160;26.100;2023-03-14T04:25:13;100963.00;;;12.03;100.00
56402;BME280;42299;35.160;26.100;2023-03-14T04:26:40;100953.34;;;12.06;100.00
56402;BME280;42299;35.160;26.100;2023-03-14T04:28:05;100956.91;;;12.10;100.00
56402;BME280;42299;35.160;26.100;2023-03-14T04:29:27;100958.75;;;12.17;100.00
56402;BME280;42299;35.160;26.100;2023-03-14T04:30:51;100950.84;;;12.18;100.00
56402;BME280;42299;35.160;26.100;2023-03-14T04:32:17;100964.09;;;12.20;100.00
56402;BME280;42299;35.160;26.100;2023-03-14T04:33:39;100958.81;;;12.21;100.00
56402;BME280;42299;35.160;26.100;2023-03-14T04:35:02;100953.53;;;12.23;100.00
56402;BME280;42299;35.160;26.100;2023-03-14T04:36:24;100958.88;;;12.26;100.00
56402;BME280;42299;35.160;26.100;2023-03-14T04:37:47;100959.75;;;12.25;100.00
56402;BME280;42299;35.160;26.100;2023-03-14T04:39:10;100966.81;;;12.26;100.00
56402;BME280;42299;35.160;26.100;2023-03-14T04:40:38;100966.78;;;12.23;100.00
56402;BME280;42299;35.160;26.100;2023-03-14T04:42:01;100971.16;;;12.19;100.00
56402;BME280;42299;35.160;26.100;2023-03-14T04:43:24;100973.81;;;12.19;100.00
56402;BME280;42299;35.160;26.100;2023-03-14T04:44:50;100982.63;;;12.21;100.00
56402;BME280;42299;35.160;26.100;2023-03-14T04:46:17;100976.47;;;12.22;100.00
56402;BME280;42299;35.160;26.100;2023-03-14T04:47:40;100980.00;;;12.23;100.00
56402;BME280;42299;35.160;26.100;2023-03-14T04:49:05;100981.81;;;12.25;100.00
56402;BME280;42299;35.160;26.100;2023-03-14T04:50:28;100973.03;;;12.29;100.00
56402;BME280;42299;35.160;26.100;2023-03-14T04:51:49;100976.59;;;12.31;100.00
56402;BME280;42299;35.160;26.100;2023-03-14T04:53:12;100980.19;;;12.36;100.00
56402;BME280;42299;35.160;26.100;2023-03-14T04:54:36;100981.09;;;12.42;100.00
56402;BME280;42299;35.160;26.100;2023-03-14T04:55:59;100971.44;;;12.44;100.00
56402;BME280;42299;35.160;26.100;2023-03-14T04:57:27;100973.22;;;12.48;100.00
56402;BME280;42299;35.160;26.100;2023-03-14T04:58:50;100986.50;;;12.49;100.00
56402;BME280;42299;35.160;26.100;2023-03-14T05:00:13;100990.94;;;12.52;100.00
56402;BME280;42299;35.160;26.100;2023-03-14T05:01:58;100986.53;;;12.54;100.00
56402;BME280;42299;35.160;26.100;2023-03-14T05:03:44;100984.84;;;12.57;100.00
56402;BME280;42299;35.160;26.100;2023-03-14T05:05:35;100995.44;;;12.59;100.00
56402;BME280;42299;35.160;26.100;2023-03-14T05:07:29;100991.03;;;12.59;100.00
56402;BME280;42299;35.160;26.100;2023-03-14T05:09:02;100997.22;;;12.61;100.00
56402;BME280;42299;35.160;26.100;2023-03-14T05:10:35;100982.19;;;12.60;100.00
56402;BME280;42299;35.160;26.100;2023-03-14T05:12:19;100988.38;;;12.61;100.00
56402;BME280;42299;35.160;26.100;2023-03-14T05:14:01;100980.44;;;12.59;100.00
56402;BME280;42299;35.160;26.100;2023-03-14T05:15:42;100986.63;;;12.60;100.00
56402;BME280;42299;35.160;26.100;2023-03-14T05:17:18;100976.94;;;12.62;100.00
56402;BME280;42299;35.160;26.100;2023-03-14T05:19:00;100991.97;;;12.64;100.00
56402;BME280;42299;35.160;26.100;2023-03-14T05:20:40;100996.41;;;12.67;100.00
56402;BME280;42299;35.160;26.100;2023-03-14T05:22:27;100999.06;;;12.68;100.00
56402;BME280;42299;35.160;26.100;2023-03-14T05:24:04;100996.47;;;12.71;100.00
56402;BME280;42299;35.160;26.100;2023-03-14T05:25:50;101007.09;;;12.76;100.00
56402;BME280;42299;35.160;26.100;2023-03-14T05:27:37;101002.69;;;12.76;100.00
56402;BME280;42299;35.160;26.100;2023-03-14T05:29:26;101007.13;;;12.77;100.00
56402;BME280;42299;35.160;26.100;2023-03-14T05:31:11;101011.56;;;12.78;100.00
56402;BME280;42299;35.160;26.100;2023-03-14T05:33:01;100993.00;;;12.80;100.00
56402;BME280;42299;35.160;26.100;2023-03-14T05:34:41;101011.56;;;12.78;100.00
56402;BME280;42299;35.160;26.100;2023-03-14T05:36:36;101016.88;;;12.82;100.00
56402;BME280;42299;35.160;26.100;2023-03-14T05:38:20;101022.22;;;12.85;100.00
56402;BME280;42299;35.160;26.100;2023-03-14T05:39:58;101018.72;;;12.89;100.00
56402;BME280;42299;35.160;26.100;2023-03-14T05:41:33;101018.72;;;12.89;100.00
56402;BME280;42299;35.160;26.100;2023-03-14T05:43:34;101018.75;;;12.90;100.00
56402;BME280;42299;35.160;26.100;2023-03-14T05:45:23;101020.50;;;12.90;100.00
56402;BME280;42299;35.160;26.100;2023-03-14T05:47:17;101024.91;;;12.89;100.00
56402;BME280;42299;35.160;26.100;2023-03-14T05:48:53;101026.72;;;12.92;100.00
56402;BME280;42299;35.160;26.100;2023-03-14T05:50:47;101033.75;;;12.90;100.00
56402;BME280;42299;35.160;26.100;2023-03-14T05:52:22;101032.88;;;12.91;100.00
56402;BME280;42299;35.160;26.100;2023-03-14T05:54:04;101041.66;;;12.88;100.00
56402;BME280;42299;35.160;26.100;2023-03-14T05:55:46;101041.72;;;12.91;100.00
56402;BME280;42299;35.160;26.100;2023-03-14T05:57:15;101039.97;;;12.95;100.00
56402;BME280;42299;35.160;26.100;2023-03-14T05:59:04;101043.53;;;13.00;100.00
56402;BME280;42299;35.160;26.100;2023-03-14T06:01:02;101050.66;;;13.02;100.00
56402;BME280;42299;35.160;26.100;2023-03-14T06:02:44;101052.44;;;13.03;100.00
56402;BME280;42299;35.160;26.100;2023-03-14T06:04:17;101056.00;;;13.05;100.00
56402;BME280;42299;35.160;26.100;2023-03-14T06:05:44;101063.09;;;13.09;100.00
56402;BME280;42299;35.160;26.100;2023-03-14T06:07:06;101039.25;;;13.09;100.00
56402;BME280;42299;35.160;26.100;2023-03-14T06:08:29;101056.91;;;13.09;100.00
56402;BME280;42299;35.160;26.100;2023-03-14T06:09:51;101042.78;;;13.10;100.00
56402;BME280;42299;35.160;26.100;2023-03-14T06:11:13;101044.63;;;13.12;100.00
56402;BME280;42299;35.160;26.100;2023-03-14T06:12:36;101054.34;;;13.15;100.00
56402;BME280;42299;35.160;26.100;2023-03-14T06:13:58;101036.69;;;13.17;100.00
56402;BME280;42299;35.160;26.100;2023-03-14T06:15:23;101050.88;;;13.22;100.00
56402;BME280;42299;35.160;26.100;2023-03-14T06:16:48;101049.16;;;13.27;100.00
56402;BME280;42299;35.160;26.100;2023-03-14T06:18:13;101050.97;;;13.30;100.00
56402;BME280;42299;35.160;26.100;2023-03-14T06:19:38;101050.97;;;13.31;100.00
56402;BME280;42299;35.160;26.100;2023-03-14T06:21:00;101052.78;;;13.35;100.00
56402;BME280;42299;35.160;26.100;2023-03-14T06:22:22;101049.28;;;13.41;100.00
56402;BME280;42299;35.160;26.100;2023-03-14T06:23:44;101062.59;;;13.47;100.00
56402;BME280;42299;35.160;26.100;2023-03-14T06:25:07;101055.59;;;13.52;100.00
56402;BME280;42299;35.160;26.100;2023-03-14T06:26:29;101060.91;;;13.55;100.00
56402;BME280;42299;35.160;26.100;2023-03-14T06:27:51;101065.34;;;13.56;100.00
56402;BME280;42299;35.160;26.100;2023-03-14T06:29:13;101057.34;;;13.53;100.00
56402;BME280;42299;35.160;26.100;2023-03-14T06:30:36;101060.00;;;13.51;100.00
56402;BME280;42299;35.160;26.100;2023-03-14T06:31:57;101068.84;;;13.53;100.00
56402;BME280;42299;35.160;26.100;2023-03-14T06:33:20;101064.41;;;13.54;100.00
56402;BME280;42299;35.160;26.100;2023-03-14T06:34:45;101063.56;;;13.56;100.00
56402;BME280;42299;35.160;26.100;2023-03-14T06:36:08;101064.50;;;13.63;100.00
56402;BME280;42299;35.160;26.100;2023-03-14T06:37:35;101083.09;;;13.68;100.00
56402;BME280;42299;35.160;26.100;2023-03-14T06:38:59;101057.50;;;13.71;100.00
56402;BME280;42299;35.160;26.100;2023-03-14T06:40:23;101068.13;;;13.71;100.00
56402;BME280;42299;35.160;26.100;2023-03-14T06:42:00;101070.75;;;13.70;100.00
56402;BME280;42299;35.160;26.100;2023-03-14T06:43:24;101073.41;;;13.70;100.00
56402;BME280;42299;35.160;26.100;2023-03-14T06:44:47;101069.00;;;13.72;100.00
56402;BME280;42299;35.160;26.100;2023-03-14T06:46:09;101075.19;;;13.74;100.00
56402;BME280;42299;35.160;26.100;2023-03-14T06:47:34;101077.00;;;13.79;100.00
56402;BME280;42299;35.160;26.100;2023-03-14T06:48:56;101083.22;;;13.83;100.00
56402;BME280;42299;35.160;26.100;2023-03-14T06:50:20;101075.28;;;13.86;100.00
56402;BME280;42299;35.160;26.100;2023-03-14T06:51:44;101069.09;;;13.87;100.00
56402;BME280;42299;35.160;26.100;2023-03-14T06:53:06;101070.03;;;13.93;100.00
56402;BME280;42299;35.160;26.100;2023-03-14T06:54:31;101074.47;;;13.99;100.00
56402;BME280;42299;35.160;26.100;2023-03-14T06:55:54;101071.00;;;14.03;100.00
56402;BME280;42299;35.160;26.100;2023-03-14T06:57:16;101054.22;;;14.10;100.00
56402;BME280;42299;35.160;26.100;2023-03-14T06:58:39;101070.19;;;14.16;100.00
56402;BME280;42299;35.160;26.100;2023-03-14T07:00:04;101058.69;;;14.20;100.00
56402;BME280;42299;35.160;26.100;2023-03-14T07:01:28;101049.88;;;14.27;100.00
56402;BME280;42299;35.160;26.100;2023-03-14T07:02:58;101058.75;;;14.32;100.00
56402;BME280;42299;35.160;26.100;2023-03-14T07:04:24;101049.94;;;14.35;100.00
56402;BME280;42299;35.160;26.100;2023-03-14T07:05:48;101071.25;;;14.43;100.00
56402;BME280;42299;35.160;26.100;2023-03-14T07:07:10;101065.97;;;14.49;100.00
56402;BME280;42299;35.160;26.100;2023-03-14T07:08:33;101073.06;;;14.53;100.00
56402;BME280;42299;35.160;26.100;2023-03-14T07:09:56;101067.75;;;14.59;100.00
56402;BME280;42299;35.160;26.100;2023-03-14T07:11:18;101062.50;;;14.63;100.00
56402;BME280;42299;35.160;26.100;2023-03-14T07:12:40;101055.38;;;14.59;100.00
56402;BME280;42299;35.160;26.100;2023-03-14T07:14:03;101065.13;;;14.60;100.00
56402;BME280;42299;35.160;26.100;2023-03-14T07:15:26;101064.22;;;14.60;100.00
56402;BME280;42299;35.160;26.100;2023-03-14T07:16:52;101067.75;;;14.59;100.00
56402;BME280;42299;35.160;26.100;2023-03-14T07:18:15;101062.47;;;14.62;100.00
56402;BME280;42299;35.160;26.100;2023-03-14T07:19:37;101062.47;;;14.66;100.00
56402;BME280;42299;35.160;26.100;2023-03-14T07:21:03;101068.72;;;14.74;100.00